sensor_id;sensor_type;location;lat;lon;timestamp;pressure;altitude;pressure_sealevel;temperature;humidity
80629;BME280;69983;42.370;-71.210;2023-06-19T00:00:46;101073.46;;;23.53;23.52
80629;BME280;69983;42.370;-71.210;2023-06-19T00:02:46;101083.44;;;23.20;23.69
80629;BME280;69983;42.370;-71.210;2023-06-19T00:04:47;101091.16;;;24.30;22.90
80629;BME280;69983;42.370;-71.210;2023-06-19T00:06:47;101100.89;;;24.60;22.83
80629;BME280;69983;42.370;-71.210;2023-06-19T00:08:48;101101.28;;;24.87;22.82
80629;BME280;69983;42.370;-71.210;2023-06-19T00:10:48;101106.40;;;25.02;22.59
80629;BME280;69983;42.370;-71.210;2023-06-19T00:12:48;101101.86;;;24.37;23.39
80629;BME280;69983;42.370;-71.210;2023-06-19T00:14:49;101105.99;;;23.18;24.04
80629;BME280;69983;42.370;-71.210;2023-06-19T00:16:50;101109.34;;;23.19;24.04
80629;BME280;69983;42.370;-71.210;2023-06-19T00:18:50;101106.60;;;22.87;23.87
80629;BME280;69983;42.370;-71.210;2023-06-19T00:20:50;101107.42;;;22.96;23.99
80629;BME280;69983;42.370;-71.210;2023-06-19T00:22:50;101106.23;;;24.50;22.99
80629;BME280;69983;42.370;-71.210;2023-06-19T00:24:50;101109.80;;;24.81;22.80
80629;BME280;69983;42.370;-71.210;2023-06-19T00:26:51;101108.94;;;25.10;22.67
80629;BME280;69983;42.370;-71.210;2023-06-19T00:28:51;101115.56;;;24.35;23.57
80629;BME280;69983;42.370;-71.210;2023-06-19T00:30:51;101122.89;;;24.11;23.39
80629;BME280;69983;42.370;-71.210;2023-06-19T00:32:52;101123.77;;;23.18;23.89
80629;BME280;69983;42.370;-71.210;2023-06-19T00:34:53;101126.48;;;23.11;23.85
80629;BME280;69983;42.370;-71.210;2023-06-19T00:36:53;101132.15;;;22.75;24.37
80629;BME280;69983;42.370;-71.210;2023-06-19T00:38:53;101131.09;;;24.61;23.01
80629;BME280;69983;42.370;-71.210;2023-06-19T00:40:53;101137.05;;;25.11;22.75
80629;BME280;69983;42.370;-71.210;2023-06-19T00:42:54;101143.69;;;25.11;22.92
80629;BME280;69983;42.370;-71.210;2023-06-19T00:44:54;101150.98;;;25.22;22.82
80629;BME280;69983;42.370;-71.210;2023-06-19T00:46:57;101155.74;;;24.80;23.08
80629;BME280;69983;42.370;-71.210;2023-06-19T00:48:55;101158.40;;;24.77;22.95
80629;BME280;69983;42.370;-71.210;2023-06-19T00:50:57;101159.77;;;24.51;22.90
80629;BME280;69983;42.370;-71.210;2023-06-19T00:52:57;101165.00;;;24.30;22.90
80629;BME280;69983;42.370;-71.210;2023-06-19T00:54:58;101166.63;;;24.61;23.09
80629;BME280;69983;42.370;-71.210;2023-06-19T00:56:59;101173.59;;;24.86;22.80
80629;BME280;69983;42.370;-71.210;2023-06-19T00:58:59;101185.05;;;25.10;22.74
80629;BME280;69983;42.370;-71.210;2023-06-19T01:01:00;101186.62;;;25.03;22.94
80629;BME280;69983;42.370;-71.210;2023-06-19T01:03:01;101185.60;;;25.31;22.92
80629;BME280;69983;42.370;-71.210;2023-06-19T01:05:02;101193.49;;;25.24;22.91
80629;BME280;69983;42.370;-71.210;2023-06-19T01:07:05;101201.57;;;24.94;23.09
80629;BME280;69983;42.370;-71.210;2023-06-19T01:09:04;101200.59;;;25.17;23.23
80629;BME280;69983;42.370;-71.210;2023-06-19T01:11:03;101204.43;;;24.66;23.31
80629;BME280;69983;42.370;-71.210;2023-06-19T01:13:06;101207.68;;;24.03;23.68
80629;BME280;69983;42.370;-71.210;2023-06-19T01:15:04;101205.78;;;23.55;23.66
80629;BME280;69983;42.370;-71.210;2023-06-19T01:17:04;101207.88;;;23.41;24.00
80629;BME280;69983;42.370;-71.210;2023-06-19T01:19:05;101211.68;;;24.46;23.29
80629;BME280;69983;42.370;-71.210;2023-06-19T01:21:12;101215.85;;;24.81;22.96
80629;BME280;69983;42.370;-71.210;2023-06-19T01:23:09;101225.71;;;25.04;22.90
80629;BME280;69983;42.370;-71.210;2023-06-19T01:25:06;101232.02;;;25.22;23.04
80629;BME280;69983;42.370;-71.210;2023-06-19T01:27:06;101237.74;;;25.20;23.09
80629;BME280;69983;42.370;-71.210;2023-06-19T01:29:05;101243.29;;;25.13;23.34
80629;BME280;69983;42.370;-71.210;2023-06-19T01:31:11;101253.43;;;24.60;23.58
80629;BME280;69983;42.370;-71.210;2023-06-19T01:33:11;101264.99;;;23.77;23.72
80629;BME280;69983;42.370;-71.210;2023-06-19T01:35:08;101273.94;;;23.28;23.63
80629;BME280;69983;42.370;-71.210;2023-06-19T01:37:08;101274.88;;;24.01;23.48
80629;BME280;69983;42.370;-71.210;2023-06-19T01:39:09;101275.18;;;25.03;22.98
80629;BME280;69983;42.370;-71.210;2023-06-19T01:41:08;101276.51;;;25.38;22.80
80629;BME280;69983;42.370;-71.210;2023-06-19T01:43:09;101275.90;;;25.21;22.92
80629;BME280;69983;42.370;-71.210;2023-06-19T01:45:09;101271.66;;;25.15;23.04
80629;BME280;69983;42.370;-71.210;2023-06-19T01:47:10;101265.25;;;24.66;23.37
80629;BME280;69983;42.370;-71.210;2023-06-19T01:49:09;101269.14;;;24.32;23.33
80629;BME280;69983;42.370;-71.210;2023-06-19T01:51:10;101269.24;;;24.01;23.27
80629;BME280;69983;42.370;-71.210;2023-06-19T01:53:10;101274.16;;;23.80;23.42
80629;BME280;69983;42.370;-71.210;2023-06-19T01:55:11;101274.86;;;24.01;23.47
80629;BME280;69983;42.370;-71.210;2023-06-19T01:57:11;101273.96;;;25.04;22.74
80629;BME280;69983;42.370;-71.210;2023-06-19T01:59:11;101276.66;;;25.02;22.70
80629;BME280;69983;42.370;-71.210;2023-06-19T02:01:12;101273.51;;;25.17;22.94
80629;BME280;69983;42.370;-71.210;2023-06-19T02:03:12;101268.89;;;24.41;23.26
80629;BME280;69983;42.370;-71.210;2023-06-19T02:05:12;101281.23;;;23.85;24.69
80629;BME280;69983;42.370;-71.210;2023-06-19T02:07:13;101279.32;;;22.95;26.74
80629;BME280;69983;42.370;-71.210;2023-06-19T02:09:12;101277.86;;;22.63;27.71
80629;BME280;69983;42.370;-71.210;2023-06-19T02:11:13;101285.73;;;22.28;28.36
80629;BME280;69983;42.370;-71.210;2023-06-19T02:13:13;101287.49;;;22.60;28.44
80629;BME280;69983;42.370;-71.210;2023-06-19T02:15:14;101289.73;;;22.67;29.34
80629;BME280;69983;42.370;-71.210;2023-06-19T02:17:15;101288.52;;;22.89;29.47
80629;BME280;69983;42.370;-71.210;2023-06-19T02:19:15;101289.46;;;23.27;29.62
80629;BME280;69983;42.370;-71.210;2023-06-19T02:21:16;101295.82;;;23.76;29.69
80629;BME280;69983;42.370;-71.210;2023-06-19T02:23:16;101297.07;;;23.36;30.03
80629;BME280;69983;42.370;-71.210;2023-06-19T02:25:17;101301.19;;;24.00;29.74
80629;BME280;69983;42.370;-71.210;2023-06-19T02:27:17;101305.02;;;22.64;30.75
80629;BME280;69983;42.370;-71.210;2023-06-19T02:29:17;101308.30;;;22.38;30.39
80629;BME280;69983;42.370;-71.210;2023-06-19T02:31:17;101308.12;;;22.18;30.35
80629;BME280;69983;42.370;-71.210;2023-06-19T02:33:17;101309.66;;;22.49;30.56
80629;BME280;69983;42.370;-71.210;2023-06-19T02:35:18;101307.29;;;22.28;31.48
80629;BME280;69983;42.370;-71.210;2023-06-19T02:37:18;101310.99;;;22.80;30.90
80629;BME280;69983;42.370;-71.210;2023-06-19T02:39:18;101323.08;;;23.53;30.72
80629;BME280;69983;42.370;-71.210;2023-06-19T02:41:19;101329.38;;;23.20;30.92
80629;BME280;69983;42.370;-71.210;2023-06-19T02:43:19;101335.93;;;23.79;30.80
80629;BME280;69983;42.370;-71.210;2023-06-19T02:45:19;101333.06;;;23.46;30.94
80629;BME280;69983;42.370;-71.210;2023-06-19T02:47:20;101326.10;;;23.19;31.48
80629;BME280;69983;42.370;-71.210;2023-06-19T02:49:20;101322.13;;;23.35;31.82
80629;BME280;69983;42.370;-71.210;2023-06-19T02:51:20;101316.93;;;22.64;31.80
80629;BME280;69983;42.370;-71.210;2023-06-19T02:53:20;101318.21;;;22.12;31.59
80629;BME280;69983;42.370;-71.210;2023-06-19T02:55:21;101315.53;;;22.21;31.04
80629;BME280;69983;42.370;-71.210;2023-06-19T02:57:21;101317.70;;;22.31;30.94
80629;BME280;69983;42.370;-71.210;2023-06-19T02:59:21;101311.61;;;21.63;31.87
80629;BME280;69983;42.370;-71.210;2023-06-19T03:01:22;101310.75;;;22.54;31.65
80629;BME280;69983;42.370;-71.210;2023-06-19T03:03:22;101311.82;;;22.88;31.29
80629;BME280;69983;42.370;-71.210;2023-06-19T03:05:23;101315.68;;;23.79;30.71
80629;BME280;69983;42.370;-71.210;2023-06-19T03:07:23;101309.78;;;23.17;31.51
80629;BME280;69983;42.370;-71.210;2023-06-19T03:09:25;101311.26;;;23.15;31.80
80629;BME280;69983;42.370;-71.210;2023-06-19T03:11:25;101312.45;;;23.28;31.74
80629;BME280;69983;42.370;-71.210;2023-06-19T03:13:25;101313.84;;;23.01;32.21
80629;BME280;69983;42.370;-71.210;2023-06-19T03:15:26;101317.89;;;23.27;31.89
80629;BME280;69983;42.370;-71.210;2023-06-19T03:17:26;101315.87;;;22.36;32.22
80629;BME280;69983;42.370;-71.210;2023-06-19T03:19:26;101317.19;;;22.13;31.83
80629;BME280;69983;42.370;-71.210;2023-06-19T03:21:27;101315.44;;;22.15;32.05
80629;BME280;69983;42.370;-71.210;2023-06-19T03:23:27;101313.32;;;22.65;31.09
80629;BME280;69983;42.370;-71.210;2023-06-19T03:25:27;101312.99;;;22.73;31.45
80629;BME280;69983;42.370;-71.210;2023-06-19T03:27:28;101318.17;;;23.47;30.81
80629;BME280;69983;42.370;-71.210;2023-06-19T03:29:29;101323.39;;;23.28;31.23
80629;BME280;69983;42.370;-71.210;2023-06-19T03:31:30;101321.49;;;23.32;31.47
80629;BME280;69983;42.370;-71.210;2023-06-19T03:33:30;101313.51;;;22.86;31.96
80629;BME280;69983;42.370;-71.210;2023-06-19T03:35:31;101313.87;;;22.92;32.44
80629;BME280;69983;42.370;-71.210;2023-06-19T03:37:31;101316.58;;;22.21;32.42
80629;BME280;69983;42.370;-71.210;2023-06-19T03:39:31;101319.76;;;21.87;32.52
80629;BME280;69983;42.370;-71.210;2023-06-19T03:41:32;101328.90;;;21.40;32.52
80629;BME280;69983;42.370;-71.210;2023-06-19T03:43:33;101331.55;;;21.64;32.41
80629;BME280;69983;42.370;-71.210;2023-06-19T03:45:33;101325.44;;;22.31;32.55
80629;BME280;69983;42.370;-71.210;2023-06-19T03:47:33;101320.80;;;23.32;31.78
80629;BME280;69983;42.370;-71.210;2023-06-19T03:49:34;101321.70;;;23.08;31.90
80629;BME280;69983;42.370;-71.210;2023-06-19T03:51:34;101324.53;;;22.75;31.86
80629;BME280;69983;42.370;-71.210;2023-06-19T03:53:35;101326.48;;;23.18;32.07
80629;BME280;69983;42.370;-71.210;2023-06-19T03:55:35;101331.45;;;23.10;32.03
80629;BME280;69983;42.370;-71.210;2023-06-19T03:57:36;101336.52;;;23.64;31.54
80629;BME280;69983;42.370;-71.210;2023-06-19T03:59:36;101336.83;;;23.22;32.09
80629;BME280;69983;42.370;-71.210;2023-06-19T04:01:37;101333.75;;;22.91;32.35
80629;BME280;69983;42.370;-71.210;2023-06-19T04:03:39;101334.14;;;23.16;32.36
80629;BME280;69983;42.370;-71.210;2023-06-19T04:05:38;101334.93;;;23.84;31.81
80629;BME280;69983;42.370;-71.210;2023-06-19T04:07:38;101329.12;;;23.53;32.14
80629;BME280;69983;42.370;-71.210;2023-06-19T04:09:39;101329.54;;;23.91;31.80
80629;BME280;69983;42.370;-71.210;2023-06-19T04:11:39;101329.67;;;23.40;32.45
80629;BME280;69983;42.370;-71.210;2023-06-19T04:13:41;101327.23;;;23.65;32.24
80629;BME280;69983;42.370;-71.210;2023-06-19T04:15:41;101323.33;;;23.69;32.28
80629;BME280;69983;42.370;-71.210;2023-06-19T04:17:42;101323.97;;;23.88;32.17
80629;BME280;69983;42.370;-71.210;2023-06-19T04:19:42;101321.48;;;23.58;32.43
80629;BME280;69983;42.370;-71.210;2023-06-19T04:21:42;101321.57;;;23.39;32.52
80629;BME280;69983;42.370;-71.210;2023-06-19T04:23:43;101326.74;;;23.63;32.62
80629;BME280;69983;42.370;-71.210;2023-06-19T04:25:43;101329.94;;;24.42;32.04
80629;BME280;69983;42.370;-71.210;2023-06-19T04:27:45;101330.78;;;23.51;32.67
80629;BME280;69983;42.370;-71.210;2023-06-19T04:29:45;101334.55;;;23.66;32.74
80629;BME280;69983;42.370;-71.210;2023-06-19T04:31:45;101338.04;;;23.91;32.66
80629;BME280;69983;42.370;-71.210;2023-06-19T04:33:46;101339.12;;;24.27;32.35
80629;BME280;69983;42.370;-71.210;2023-06-19T04:35:46;101341.43;;;24.42;32.23
80629;BME280;69983;42.370;-71.210;2023-06-19T04:37:46;101348.64;;;23.38;33.34
80629;BME280;69983;42.370;-71.210;2023-06-19T04:39:46;101356.34;;;21.77;33.45
80629;BME280;69983;42.370;-71.210;2023-06-19T04:41:47;101360.27;;;22.47;32.50
80629;BME280;69983;42.370;-71.210;2023-06-19T04:43:47;101357.15;;;22.83;31.62
80629;BME280;69983;42.370;-71.210;2023-06-19T04:45:47;101356.70;;;22.89;31.69
80629;BME280;69983;42.370;-71.210;2023-06-19T04:47:49;101358.53;;;23.03;31.42
80629;BME280;69983;42.370;-71.210;2023-06-19T04:49:49;101359.91;;;24.64;31.25
80629;BME280;69983;42.370;-71.210;2023-06-19T04:51:49;101356.26;;;25.21;31.17
80629;BME280;69983;42.370;-71.210;2023-06-19T04:53:49;101354.96;;;24.50;32.38
80629;BME280;69983;42.370;-71.210;2023-06-19T04:55:50;101352.19;;;24.00;32.67
80629;BME280;69983;42.370;-71.210;2023-06-19T04:57:51;101352.80;;;23.45;33.67
80629;BME280;69983;42.370;-71.210;2023-06-19T04:59:51;101354.02;;;24.44;32.60
80629;BME280;69983;42.370;-71.210;2023-06-19T05:01:51;101362.09;;;23.41;33.81
80629;BME280;69983;42.370;-71.210;2023-06-19T05:03:52;101366.54;;;23.27;33.79
80629;BME280;69983;42.370;-71.210;2023-06-19T05:05:52;101369.91;;;23.51;33.82
80629;BME280;69983;42.370;-71.210;2023-06-19T05:07:53;101375.02;;;24.04;33.51
80629;BME280;69983;42.370;-71.210;2023-06-19T05:09:53;101380.29;;;23.96;33.65
80629;BME280;69983;42.370;-71.210;2023-06-19T05:11:53;101381.56;;;23.93;33.35
80629;BME280;69983;42.370;-71.210;2023-06-19T05:13:53;101382.33;;;23.18;33.64
80629;BME280;69983;42.370;-71.210;2023-06-19T05:15:54;101375.70;;;22.56;33.28
80629;BME280;69983;42.370;-71.210;2023-06-19T05:17:55;101382.79;;;23.75;31.64
80629;BME280;69983;42.370;-71.210;2023-06-19T05:19:55;101387.19;;;22.71;32.21
80629;BME280;69983;42.370;-71.210;2023-06-19T05:21:55;101386.66;;;23.04;32.90
80629;BME280;69983;42.370;-71.210;2023-06-19T05:23:56;101382.73;;;23.33;32.69
80629;BME280;69983;42.370;-71.210;2023-06-19T05:25:56;101384.78;;;23.99;32.22
80629;BME280;69983;42.370;-71.210;2023-06-19T05:27:56;101388.48;;;23.47;32.61
80629;BME280;69983;42.370;-71.210;2023-06-19T05:29:57;101395.34;;;23.61;32.86
80629;BME280;69983;42.370;-71.210;2023-06-19T05:31:57;101397.77;;;23.64;32.81
80629;BME280;69983;42.370;-71.210;2023-06-19T05:33:57;101392.60;;;23.98;32.79
80629;BME280;69983;42.370;-71.210;2023-06-19T05:35:58;101386.20;;;23.53;33.49
80629;BME280;69983;42.370;-71.210;2023-06-19T05:38:00;101388.57;;;23.63;33.22
80629;BME280;69983;42.370;-71.210;2023-06-19T05:39:59;101397.24;;;24.07;33.07
80629;BME280;69983;42.370;-71.210;2023-06-19T05:42:01;101400.90;;;23.97;33.33
80629;BME280;69983;42.370;-71.210;2023-06-19T05:44:00;101402.21;;;23.72;33.43
80629;BME280;69983;42.370;-71.210;2023-06-19T05:46:00;101402.90;;;24.05;33.42
80629;BME280;69983;42.370;-71.210;2023-06-19T05:48:01;101405.30;;;24.28;33.18
80629;BME280;69983;42.370;-71.210;2023-06-19T05:50:01;101405.65;;;23.86;33.51
80629;BME280;69983;42.370;-71.210;2023-06-19T05:52:02;101407.29;;;23.65;33.72
80629;BME280;69983;42.370;-71.210;2023-06-19T05:54:02;101417.00;;;24.05;33.27
80629;BME280;69983;42.370;-71.210;2023-06-19T05:56:02;101421.40;;;23.71;33.39
80629;BME280;69983;42.370;-71.210;2023-06-19T05:58:03;101414.87;;;23.71;33.14
80629;BME280;69983;42.370;-71.210;2023-06-19T06:00:04;101410.18;;;24.45;32.63
80629;BME280;69983;42.370;-71.210;2023-06-19T06:02:04;101404.73;;;24.69;32.35
80629;BME280;69983;42.370;-71.210;2023-06-19T06:04:04;101402.75;;;24.37;32.37
80629;BME280;69983;42.370;-71.210;2023-06-19T06:06:05;101407.53;;;24.07;32.73
80629;BME280;69983;42.370;-71.210;2023-06-19T06:08:05;101412.25;;;24.82;32.15
80629;BME280;69983;42.370;-71.210;2023-06-19T06:10:06;101415.23;;;24.19;32.90
80629;BME280;69983;42.370;-71.210;2023-06-19T06:12:07;101418.29;;;24.96;32.08
80629;BME280;69983;42.370;-71.210;2023-06-19T06:14:07;101423.81;;;24.49;32.55
80629;BME280;69983;42.370;-71.210;2023-06-19T06:16:07;101428.45;;;24.82;32.25
80629;BME280;69983;42.370;-71.210;2023-06-19T06:18:08;101435.29;;;24.64;32.38
80629;BME280;69983;42.370;-71.210;2023-06-19T06:20:09;101433.03;;;25.21;32.07
80629;BME280;69983;42.370;-71.210;2023-06-19T06:22:09;101430.86;;;24.61;32.41
80629;BME280;69983;42.370;-71.210;2023-06-19T06:24:09;101435.58;;;24.47;32.35
80629;BME280;69983;42.370;-71.210;2023-06-19T06:26:09;101435.99;;;24.89;32.20
80629;BME280;69983;42.370;-71.210;2023-06-19T06:28:10;101435.22;;;24.35;32.88
80629;BME280;69983;42.370;-71.210;2023-06-19T06:30:11;101433.00;;;25.38;32.13
80629;BME280;69983;42.370;-71.210;2023-06-19T06:32:10;101434.72;;;24.91;32.73
80629;BME280;69983;42.370;-71.210;2023-06-19T06:34:10;101434.57;;;25.47;32.10
80629;BME280;69983;42.370;-71.210;2023-06-19T06:36:10;101434.36;;;23.46;33.85
80629;BME280;69983;42.370;-71.210;2023-06-19T06:38:10;101428.83;;;23.10;33.65
80629;BME280;69983;42.370;-71.210;2023-06-19T06:40:12;101428.23;;;23.13;32.99
80629;BME280;69983;42.370;-71.210;2023-06-19T06:42:11;101431.12;;;23.12;32.63
80629;BME280;69983;42.370;-71.210;2023-06-19T06:44:11;101431.90;;;23.02;32.86
80629;BME280;69983;42.370;-71.210;2023-06-19T06:46:11;101430.60;;;23.67;32.46
80629;BME280;69983;42.370;-71.210;2023-06-19T06:48:11;101428.40;;;23.90;32.13
80629;BME280;69983;42.370;-71.210;2023-06-19T06:50:11;101422.09;;;23.94;32.32
80629;BME280;69983;42.370;-71.210;2023-06-19T06:52:13;101423.67;;;23.88;32.56
80629;BME280;69983;42.370;-71.210;2023-06-19T06:54:12;101429.48;;;23.21;33.38
80629;BME280;69983;42.370;-71.210;2023-06-19T06:56:12;101433.74;;;24.13;32.82
80629;BME280;69983;42.370;-71.210;2023-06-19T06:58:15;101425.83;;;24.34;32.88
80629;BME280;69983;42.370;-71.210;2023-06-19T07:00:15;101419.21;;;23.86;33.23
80629;BME280;69983;42.370;-71.210;2023-06-19T07:02:15;101424.41;;;23.83;33.27
80629;BME280;69983;42.370;-71.210;2023-06-19T07:04:15;101427.70;;;24.07;33.74
80629;BME280;69983;42.370;-71.210;2023-06-19T07:06:16;101431.95;;;24.45;33.41
80629;BME280;69983;42.370;-71.210;2023-06-19T07:08:16;101435.72;;;24.27;33.31
80629;BME280;69983;42.370;-71.210;2023-06-19T07:10:16;101436.51;;;24.08;33.62
80629;BME280;69983;42.370;-71.210;2023-06-19T07:12:17;101433.74;;;23.83;33.86
80629;BME280;69983;42.370;-71.210;2023-06-19T07:14:16;101433.52;;;23.62;33.96
80629;BME280;69983;42.370;-71.210;2023-06-19T07:16:18;101443.65;;;24.61;33.28
80629;BME280;69983;42.370;-71.210;2023-06-19T07:18:18;101442.07;;;24.09;33.76
80629;BME280;69983;42.370;-71.210;2023-06-19T07:20:18;101440.72;;;24.00;34.11
80629;BME280;69983;42.370;-71.210;2023-06-19T07:22:19;101436.13;;;24.26;33.83
80629;BME280;69983;42.370;-71.210;2023-06-19T07:24:20;101435.16;;;24.27;33.64
80629;BME280;69983;42.370;-71.210;2023-06-19T07:26:20;101432.70;;;23.84;34.00
80629;BME280;69983;42.370;-71.210;2023-06-19T07:28:20;101432.94;;;24.19;34.16
80629;BME280;69983;42.370;-71.210;2023-06-19T07:30:21;101432.46;;;23.81;34.18
80629;BME280;69983;42.370;-71.210;2023-06-19T07:32:22;101437.19;;;23.93;34.21
80629;BME280;69983;42.370;-71.210;2023-06-19T07:34:22;101445.00;;;23.57;34.25
80629;BME280;69983;42.370;-71.210;2023-06-19T07:36:22;101442.30;;;23.31;34.25
80629;BME280;69983;42.370;-71.210;2023-06-19T07:38:23;101442.46;;;24.71;32.86
80629;BME280;69983;42.370;-71.210;2023-06-19T07:40:24;101444.56;;;25.13;31.94
80629;BME280;69983;42.370;-71.210;2023-06-19T07:42:24;101444.07;;;25.45;31.27
80629;BME280;69983;42.370;-71.210;2023-06-19T07:44:24;101447.67;;;25.49;30.91
80629;BME280;69983;42.370;-71.210;2023-06-19T07:46:25;101448.63;;;25.34;30.53
80629;BME280;69983;42.370;-71.210;2023-06-19T07:48:26;101451.99;;;24.98;30.63
80629;BME280;69983;42.370;-71.210;2023-06-19T07:50:26;101454.30;;;25.59;30.12
80629;BME280;69983;42.370;-71.210;2023-06-19T07:52:26;101454.46;;;25.32;30.01
80629;BME280;69983;42.370;-71.210;2023-06-19T07:54:27;101455.22;;;25.29;29.93
80629;BME280;69983;42.370;-71.210;2023-06-19T07:56:27;101454.06;;;25.20;29.91
80629;BME280;69983;42.370;-71.210;2023-06-19T07:58:27;101451.73;;;25.40;29.63
80629;BME280;69983;42.370;-71.210;2023-06-19T08:00:27;101452.74;;;25.43;29.53
80629;BME280;69983;42.370;-71.210;2023-06-19T08:02:28;101453.12;;;25.51;29.57
80629;BME280;69983;42.370;-71.210;2023-06-19T08:04:28;101446.82;;;25.68;29.33
80629;BME280;69983;42.370;-71.210;2023-06-19T08:06:28;101442.87;;;25.57;29.39
80629;BME280;69983;42.370;-71.210;2023-06-19T08:08:29;101442.68;;;25.45;29.21
80629;BME280;69983;42.370;-71.210;2023-06-19T08:10:29;101448.73;;;25.61;29.29
80629;BME280;69983;42.370;-71.210;2023-06-19T08:12:30;101455.34;;;25.47;29.13
80629;BME280;69983;42.370;-71.210;2023-06-19T08:14:30;101461.62;;;24.86;29.03
80629;BME280;69983;42.370;-71.210;2023-06-19T08:16:31;101460.95;;;24.22;29.18
80629;BME280;69983;42.370;-71.210;2023-06-19T08:18:31;101454.07;;;24.04;29.05
80629;BME280;69983;42.370;-71.210;2023-06-19T08:20:32;101450.55;;;23.97;28.98
80629;BME280;69983;42.370;-71.210;2023-06-19T08:22:31;101452.92;;;24.80;28.15
80629;BME280;69983;42.370;-71.210;2023-06-19T08:24:32;101458.07;;;25.44;27.81
80629;BME280;69983;42.370;-71.210;2023-06-19T08:26:33;101457.38;;;25.45;27.86
80629;BME280;69983;42.370;-71.210;2023-06-19T08:28:33;101454.04;;;24.89;27.97
80629;BME280;69983;42.370;-71.210;2023-06-19T08:30:34;101450.51;;;25.59;27.80
80629;BME280;69983;42.370;-71.210;2023-06-19T08:32:34;101459.01;;;25.31;27.93
80629;BME280;69983;42.370;-71.210;2023-06-19T08:34:34;101470.90;;;25.69;27.85
80629;BME280;69983;42.370;-71.210;2023-06-19T08:36:34;101476.27;;;25.43;27.91
80629;BME280;69983;42.370;-71.210;2023-06-19T08:38:34;101468.39;;;25.70;27.94
80629;BME280;69983;42.370;-71.210;2023-06-19T08:40:34;101465.68;;;25.01;28.13
80629;BME280;69983;42.370;-71.210;2023-06-19T08:42:34;101470.37;;;25.41;28.03
80629;BME280;69983;42.370;-71.210;2023-06-19T08:44:35;101473.45;;;25.43;28.04
80629;BME280;69983;42.370;-71.210;2023-06-19T08:46:35;101472.17;;;25.36;28.12
80629;BME280;69983;42.370;-71.210;2023-06-19T08:48:35;101465.15;;;25.63;28.11
80629;BME280;69983;42.370;-71.210;2023-06-19T08:50:35;101459.52;;;25.19;28.33
80629;BME280;69983;42.370;-71.210;2023-06-19T08:52:35;101456.24;;;25.36;28.22
80629;BME280;69983;42.370;-71.210;2023-06-19T08:54:35;101454.09;;;25.34;28.25
80629;BME280;69983;42.370;-71.210;2023-06-19T08:56:35;101456.82;;;25.43;28.23
80629;BME280;69983;42.370;-71.210;2023-06-19T08:58:35;101469.61;;;25.47;28.41
80629;BME280;69983;42.370;-71.210;2023-06-19T09:00:35;101471.21;;;25.44;28.25
80629;BME280;69983;42.370;-71.210;2023-06-19T09:02:40;101471.42;;;25.31;28.38
80629;BME280;69983;42.370;-71.210;2023-06-19T09:04:35;101469.66;;;25.30;28.43
80629;BME280;69983;42.370;-71.210;2023-06-19T09:06:36;101468.44;;;25.11;28.60
80629;BME280;69983;42.370;-71.210;2023-06-19T09:08:36;101472.58;;;25.56;28.44
80629;BME280;69983;42.370;-71.210;2023-06-19T09:10:36;101481.26;;;25.45;28.57
80629;BME280;69983;42.370;-71.210;2023-06-19T09:12:36;101486.84;;;25.52;28.51
80629;BME280;69983;42.370;-71.210;2023-06-19T09:14:38;101486.56;;;25.27;28.54
80629;BME280;69983;42.370;-71.210;2023-06-19T09:16:39;101492.87;;;25.32;28.53
80629;BME280;69983;42.370;-71.210;2023-06-19T09:18:45;101496.27;;;25.47;28.64
80629;BME280;69983;42.370;-71.210;2023-06-19T09:20:39;101497.58;;;25.36;28.58
80629;BME280;69983;42.370;-71.210;2023-06-19T09:22:38;101502.21;;;25.06;28.68
80629;BME280;69983;42.370;-71.210;2023-06-19T09:24:38;101506.02;;;25.61;28.59
80629;BME280;69983;42.370;-71.210;2023-06-19T09:26:37;101503.89;;;25.64;28.58
80629;BME280;69983;42.370;-71.210;2023-06-19T09:28:41;101504.28;;;25.69;28.48
80629;BME280;69983;42.370;-71.210;2023-06-19T09:30:37;101510.00;;;25.57;28.42
80629;BME280;69983;42.370;-71.210;2023-06-19T09:32:37;101512.16;;;24.49;28.54
80629;BME280;69983;42.370;-71.210;2023-06-19T09:34:37;101518.00;;;24.26;28.43
80629;BME280;69983;42.370;-71.210;2023-06-19T09:36:37;101520.07;;;24.06;28.29
80629;BME280;69983;42.370;-71.210;2023-06-19T09:38:38;101523.48;;;24.80;27.93
80629;BME280;69983;42.370;-71.210;2023-06-19T09:40:38;101523.36;;;24.97;27.81
80629;BME280;69983;42.370;-71.210;2023-06-19T09:42:39;101526.90;;;25.14;27.70
80629;BME280;69983;42.370;-71.210;2023-06-19T09:44:41;101536.13;;;25.27;27.64
80629;BME280;69983;42.370;-71.210;2023-06-19T09:46:39;101534.69;;;25.27;27.69
80629;BME280;69983;42.370;-71.210;2023-06-19T09:48:42;101534.79;;;25.04;27.75
80629;BME280;69983;42.370;-71.210;2023-06-19T09:50:40;101537.40;;;25.35;27.73
80629;BME280;69983;42.370;-71.210;2023-06-19T09:52:39;101535.34;;;24.98;27.87
80629;BME280;69983;42.370;-71.210;2023-06-19T09:54:39;101536.86;;;25.49;27.67
80629;BME280;69983;42.370;-71.210;2023-06-19T09:56:38;101544.05;;;25.44;27.78
80629;BME280;69983;42.370;-71.210;2023-06-19T09:58:39;101549.94;;;25.03;27.99
80629;BME280;69983;42.370;-71.210;2023-06-19T10:00:39;101549.62;;;25.18;27.92
80629;BME280;69983;42.370;-71.210;2023-06-19T10:02:40;101550.33;;;25.12;28.00
80629;BME280;69983;42.370;-71.210;2023-06-19T10:04:48;101557.85;;;25.25;27.91
80629;BME280;69983;42.370;-71.210;2023-06-19T10:06:46;101562.18;;;25.30;27.90
80629;BME280;69983;42.370;-71.210;2023-06-19T10:08:40;101566.07;;;25.40;28.05
80629;BME280;69983;42.370;-71.210;2023-06-19T10:10:47;101561.49;;;24.83;27.77
80629;BME280;69983;42.370;-71.210;2023-06-19T10:12:41;101561.59;;;24.21;28.00